Time;durP1;ratioP1;P1;durP2;ratioP2;P2;SDS_P1;SDS_P2;PMS_P1;PMS_P2;Temp;Humidity;BMP_temperature;BMP_pressure;BME280_temperature;BME280_humidity;BME280_pressure;Samples;Min_cycle;Max_cycle;Signal;HPM_P1;HPM_P2
2022/10/16 00:00:39;;;;;;;19.07;13.65;;;;;;;0.49;100.00;100436.87;1660975;86;20975;-73
2022/10/16 00:03:06;;;;;;;19.98;14.50;;;;;;;0.46;100.00;100434.25;1661001;86;21090;-73
2022/10/16 00:05:33;;;;;;;19.50;13.88;;;;;;;0.46;100.00;100434.25;1660995;86;21206;-73
2022/10/16 00:08:02;;;;;;;21.10;13.90;;;;;;;0.45;100.00;100429.97;1628095;86;20971;-73
2022/10/16 00:10:29;;;;;;;19.05;12.98;;;;;;;0.40;100.00;100433.33;1661041;86;21018;-73
2022/10/16 00:12:56;;;;;;;19.02;13.60;;;;;;;0.36;100.00;100427.30;1661085;86;20999;-73
2022/10/16 00:15:23;;;;;;;19.67;14.45;;;;;;;0.32;100.00;100428.95;1661017;86;20987;-73
2022/10/16 00:17:51;;;;;;;23.75;13.88;;;;;;;0.28;100.00;100432.28;1660990;86;21443;-73
2022/10/16 00:20:17;;;;;;;17.98;13.65;;;;;;;0.26;100.00;100436.94;1660993;86;21014;-73
2022/10/16 00:22:44;;;;;;;18.65;12.78;;;;;;;0.23;100.00;100434.32;1661079;86;21097;-73
2022/10/16 00:25:11;;;;;;;16.20;12.25;;;;;;;0.20;100.00;100436.41;1660955;86;20987;-73
2022/10/16 00:27:37;;;;;;;20.37;12.37;;;;;;;0.18;100.00;100438.53;1661101;86;20975;-73
2022/10/16 00:30:08;;;;;;;23.42;14.20;;;;;;;0.14;100.00;100444.43;1661085;86;21251;-73
2022/10/16 00:32:34;;;;;;;19.57;13.75;;;;;;;0.10;100.00;100445.21;1661159;86;21006;-73
2022/10/16 00:35:03;;;;;;;19.10;13.70;;;;;;;0.08;100.00;100439.20;1661411;86;20971;-73
2022/10/16 00:37:30;;;;;;;21.60;12.80;;;;;;;0.07;100.00;100443.45;1661227;86;20986;-73
2022/10/16 00:39:56;;;;;;;19.70;12.40;;;;;;;0.06;100.00;100439.59;1661218;86;21101;-72
2022/10/16 00:42:23;;;;;;;20.68;13.22;;;;;;;0.04;100.00;100439.98;1661228;86;21151;-72
2022/10/16 00:44:58;;;;;;;19.42;13.50;;;;;;;-0.01;100.00;100438.66;1661154;86;20974;-72
2022/10/16 00:47:32;;;;;;;19.40;13.68;;;;;;;-0.05;100.00;100437.73;1661160;86;21029;-72
2022/10/16 00:50:13;;;;;;;21.57;12.10;;;;;;;-0.08;100.00;100431.29;1661135;86;21031;-72
2022/10/16 00:52:42;;;;;;;20.77;12.40;;;;;;;-0.11;100.00;100434.20;1659060;86;21014;-72
2022/10/16 00:55:09;;;;;;;22.98;12.93;;;;;;;-0.13;100.00;100440.57;1661218;86;21147;-73
2022/10/16 00:57:37;;;;;;;20.60;13.30;;;;;;;-0.14;100.00;100443.09;1661152;86;21078;-72
2022/10/16 01:00:08;;;;;;;18.57;12.93;;;;;;;-0.14;100.00;100446.94;1643522;86;21061;-72
2022/10/16 01:02:34;;;;;;;16.57;12.10;;;;;;;-0.16;100.00;100444.34;1636076;87;21008;-72
2022/10/16 01:05:01;;;;;;;20.17;11.97;;;;;;;-0.16;100.00;100446.91;1636265;87;21439;-73
2022/10/16 01:07:56;;;;;;;18.50;12.78;;;;;;;-0.15;100.00;100444.80;1636314;87;21901;-73
2022/10/16 01:10:37;;;;;;;18.50;13.10;;;;;;;-0.15;100.00;100438.41;1636020;87;21434;-73
2022/10/16 01:13:17;;;;;;;19.12;13.20;;;;;;;-0.15;100.00;100440.95;1636376;87;21001;-73
2022/10/16 01:16:08;;;;;;;22.50;12.60;;;;;;;-0.16;100.00;100437.09;1636258;87;21475;-73
2022/10/16 01:18:44;;;;;;;19.20;11.40;;;;;;;-0.16;100.00;100435.81;1636081;87;21116;-73
2022/10/16 01:21:31;;;;;;;17.87;13.10;;;;;;;-0.16;100.00;100441.80;1636066;87;21186;-73
2022/10/16 01:24:26;;;;;;;19.40;13.10;;;;;;;-0.17;100.00;100444.32;1634367;87;21002;-73
2022/10/16 01:27:23;;;;;;;20.12;12.47;;;;;;;-0.19;100.00;100443.43;1645743;87;20983;-73
2022/10/16 01:30:13;;;;;;;15.93;11.00;;;;;;;-0.20;100.00;100445.58;1645661;86;21086;-73
2022/10/16 01:32:55;;;;;;;18.73;11.90;;;;;;;-0.22;100.00;100445.96;1643429;87;20966;-73
2022/10/16 01:35:29;;;;;;;14.78;10.38;;;;;;;-0.24;100.00;100448.48;1636131;87;21284;-73
2022/10/16 01:38:07;;;;;;;17.02;11.22;;;;;;;-0.25;100.00;100451.88;1636092;87;21532;-73
2022/10/16 01:40:36;;;;;;;17.00;11.20;;;;;;;-0.25;100.00;100453.57;1636226;87;21014;-74
2022/10/16 01:43:06;;;;;;;12.98;9.70;;;;;;;-0.25;100.00;100452.30;1636048;87;20961;-73
2022/10/16 01:45:33;;;;;;;13.88;10.93;;;;;;;-0.22;100.00;100461.30;1630971;88;21121;-74
2022/10/16 01:48:03;;;;;;;18.55;11.70;;;;;;;-0.23;100.00;100465.97;1636130;87;21124;-73
2022/10/16 01:50:33;;;;;;;22.22;12.00;;;;;;;-0.23;100.00;100470.66;1636144;87;20974;-73
2022/10/16 01:53:00;;;;;;;19.98;12.00;;;;;;;-0.21;100.00;100474.53;1636108;87;21018;-73
2022/10/16 01:55:30;;;;;;;19.35;12.63;;;;;;;-0.20;100.00;100473.25;1636107;87;21069;-73
2022/10/16 01:57:56;;;;;;;22.67;14.73;;;;;;;-0.17;100.00;100475.00;1636074;87;21573;-74
2022/10/16 02:00:23;;;;;;;26.82;17.32;;;;;;;-0.16;100.00;100476.73;1649448;86;21264;-73
2022/10/16 02:02:52;;;;;;;25.70;17.98;;;;;;;-0.15;100.00;100476.75;1656025;86;21083;-73
2022/10/16 02:05:29;;;;;;;28.23;17.45;;;;;;;-0.15;100.00;100476.75;1656078;86;21066;-73
2022/10/16 02:07:55;;;;;;;21.25;15.78;;;;;;;-0.14;100.00;100479.76;1656069;86;21023;-73
2022/10/16 02:10:24;;;;;;;23.65;15.50;;;;;;;-0.13;100.00;100481.48;1656118;86;20975;-73
2022/10/16 02:12:59;;;;;;;21.60;15.90;;;;;;;-0.12;100.00;100485.77;1656034;86;21792;-73
2022/10/16 02:15:25;;;;;;;23.95;16.55;;;;;;;-0.13;100.00;100489.16;1656019;86;21019;-73
2022/10/16 02:17:53;;;;;;;26.93;17.85;;;;;;;-0.14;100.00;100489.13;1656223;86;21050;-73
2022/10/16 02:20:25;;;;;;;26.48;16.57;;;;;;;-0.15;100.00;100492.09;1656003;86;20971;-73
2022/10/16 02:22:51;;;;;;;25.88;16.07;;;;;;;-0.15;100.00;100489.55;1658095;86;20979;-73
2022/10/16 02:25:32;;;;;;;29.32;18.42;;;;;;;-0.15;100.00;100493.38;1656042;86;21997;-73
2022/10/16 02:28:06;;;;;;;28.77;18.65;;;;;;;-0.13;100.00;100487.02;1661268;86;21022;-73
2022/10/16 02:30:56;;;;;;;26.80;18.52;;;;;;;-0.12;100.00;100495.99;1660902;86;21061;-73
2022/10/16 02:33:22;;;;;;;26.95;16.75;;;;;;;-0.10;100.00;100493.47;1661170;86;21038;-73
2022/10/16 02:35:50;;;;;;;24.25;15.28;;;;;;;-0.10;100.00;100493.47;1656222;86;20975;-73
2022/10/16 02:38:17;;;;;;;24.27;15.32;;;;;;;-0.10;100.00;100486.66;1655982;86;21272;-73
2022/10/16 02:40:44;;;;;;;22.07;14.83;;;;;;;-0.09;100.00;100496.05;1637124;86;21062;-73
2022/10/16 02:43:11;;;;;;;25.30;16.23;;;;;;;-0.11;100.00;100496.86;1656318;86;21439;-73
2022/10/16 02:45:37;;;;;;;26.27;16.67;;;;;;;-0.14;100.00;100496.80;1656102;86;21023;-73
2022/10/16 02:48:06;;;;;;;20.60;14.33;;;;;;;-0.16;100.00;100493.34;1656127;86;21515;-73
2022/10/16 02:50:34;;;;;;;19.12;13.83;;;;;;;-0.17;100.00;100496.32;1656029;86;21062;-73
2022/10/16 02:53:01;;;;;;;23.57;14.07;;;;;;;-0.15;100.00;100494.66;1655996;86;20955;-73
2022/10/16 02:55:27;;;;;;;22.37;13.55;;;;;;;-0.16;100.00;100494.63;1656062;86;21046;-73
2022/10/16 02:57:55;;;;;;;19.37;11.97;;;;;;;-0.15;100.00;100500.19;1655999;86;21102;-73
2022/10/16 03:00:22;;;;;;;16.62;12.65;;;;;;;-0.17;100.00;100498.88;1645344;86;20957;-73
2022/10/16 03:02:49;;;;;;;15.45;11.97;;;;;;;-0.19;100.00;100503.52;1636068;87;21126;-73
2022/10/16 03:05:15;;;;;;;17.23;11.85;;;;;;;-0.23;100.00;100507.73;1635947;87;21022;-73
2022/10/16 03:07:43;;;;;;;15.80;11.70;;;;;;;-0.28;100.00;100500.80;1636072;87;20962;-73
2022/10/16 03:10:10;;;;;;;18.92;12.65;;;;;;;-0.33;100.00;100510.94;1636062;87;20982;-73
2022/10/16 03:12:38;;;;;;;16.93;11.22;;;;;;;-0.37;100.00;100502.76;1636127;86;21497;-73
2022/10/16 03:15:07;;;;;;;17.17;12.25;;;;;;;-0.40;100.00;100509.95;1636150;87;21899;-73
2022/10/16 03:17:35;;;;;;;16.07;12.58;;;;;;;-0.45;100.00;100514.55;1636023;87;21006;-73
2022/10/16 03:20:04;;;;;;;17.30;11.97;;;;;;;-0.53;100.00;100506.72;1636027;87;21022;-73
2022/10/16 03:22:31;;;;;;;23.25;13.08;;;;;;;-0.58;100.00;100516.39;1636044;87;21040;-73
2022/10/16 03:24:58;;;;;;;17.12;11.83;;;;;;;-0.64;100.00;100520.12;1636088;87;21541;-73
2022/10/16 03:27:25;;;;;;;17.90;13.30;;;;;;;-0.67;100.00;100515.81;1636060;87;21957;-73
2022/10/16 03:29:51;;;;;;;20.43;12.80;;;;;;;-0.74;100.00;100517.37;1635914;87;21459;-73
2022/10/16 03:32:18;;;;;;;17.82;12.63;;;;;;;-0.78;100.00;100520.68;1635956;87;20997;-73
2022/10/16 03:34:44;;;;;;;20.32;12.28;;;;;;;-0.80;100.00;100523.62;1636000;87;21017;-73
2022/10/16 03:37:12;;;;;;;37.83;14.18;;;;;;;-0.81;100.00;100525.75;1636327;87;21375;-73
2022/10/16 03:39:39;;;;;;;20.75;12.47;;;;;;;-0.83;100.00;100524.86;1636054;87;21123;-73
2022/10/16 03:42:06;;;;;;;20.08;12.63;;;;;;;-0.83;100.00;100528.69;1635912;87;21058;-73
2022/10/16 03:44:33;;;;;;;23.02;12.68;;;;;;;-0.85;100.00;100523.95;1636039;87;21010;-73
2022/10/16 03:47:00;;;;;;;39.30;13.38;;;;;;;-0.84;100.00;100532.48;1635966;87;21026;-73
2022/10/16 03:49:26;;;;;;;20.00;13.13;;;;;;;-0.86;100.00;100527.75;1636064;87;21097;-73
2022/10/16 03:51:53;;;;;;;24.10;13.35;;;;;;;-0.86;100.00;100530.31;1635907;87;21157;-73
2022/10/16 03:54:21;;;;;;;18.45;13.72;;;;;;;-0.85;100.00;100533.31;1635974;87;21009;-73
2022/10/16 03:56:48;;;;;;;19.75;12.35;;;;;;;-0.86;100.00;100531.17;1636209;87;21507;-73
2022/10/16 03:59:15;;;;;;;18.65;11.65;;;;;;;-0.85;100.00;100534.59;1636038;87;21002;-73
2022/10/16 04:01:42;;;;;;;16.50;11.90;;;;;;;-0.87;100.00;100536.24;1635871;86;21003;-73
2022/10/16 04:04:08;;;;;;;20.00;12.18;;;;;;;-0.90;100.00;100533.62;1635936;87;22097;-73
2022/10/16 04:06:35;;;;;;;18.82;12.05;;;;;;;-0.96;100.00;100531.78;1635957;87;21478;-73
2022/10/16 04:09:02;;;;;;;22.20;12.82;;;;;;;-1.03;100.00;100538.89;1635956;87;21010;-73
2022/10/16 04:11:29;;;;;;;19.02;12.23;;;;;;;-1.07;100.00;100540.91;1635914;87;21018;-73
2022/10/16 04:13:55;;;;;;;17.90;11.95;;;;;;;-1.08;100.00;100541.74;1636068;87;21086;-73
2022/10/16 04:16:23;;;;;;;21.52;11.53;;;;;;;-1.12;100.00;100546.33;1635917;87;21153;-73
2022/10/16 04:18:49;;;;;;;20.15;11.28;;;;;;;-1.16;100.00;100547.08;1635930;87;20974;-73
2022/10/16 04:21:15;;;;;;;17.23;12.60;;;;;;;-1.19;100.00;100542.76;1636046;87;21017;-73
2022/10/16 04:23:43;;;;;;;18.10;12.40;;;;;;;-1.20;100.00;100548.69;1636007;87;21446;-73
2022/10/16 04:26:10;;;;;;;19.07;12.80;;;;;;;-1.20;100.00;100546.14;1636007;87;21021;-73
2022/10/16 04:28:37;;;;;;;20.35;13.15;;;;;;;-1.21;100.00;100549.55;1635998;87;21371;-73
2022/10/16 04:31:05;;;;;;;25.40;13.55;;;;;;;-1.19;100.00;100550.83;1635956;87;20968;-73
2022/10/16 04:33:31;;;;;;;24.12;13.35;;;;;;;-1.16;100.00;100549.63;1635950;87;20958;-73
2022/10/16 04:36:01;;;;;;;20.10;12.20;;;;;;;-1.15;100.00;100557.73;1636040;87;20990;-73
2022/10/16 04:38:28;;;;;;;21.82;14.03;;;;;;;-1.14;100.00;100560.74;1636057;87;21081;-73
2022/10/16 04:40:55;;;;;;;17.12;12.53;;;;;;;-1.14;100.00;100570.54;1635981;87;21115;-73
2022/10/16 04:43:22;;;;;;;20.02;12.45;;;;;;;-1.13;100.00;100569.71;1635920;87;20977;-73
2022/10/16 04:45:50;;;;;;;20.43;13.32;;;;;;;-1.11;100.00;100572.30;1636020;87;20986;-73
2022/10/16 04:48:18;;;;;;;20.57;13.98;;;;;;;-1.08;100.00;100573.25;1635941;87;21069;-73
2022/10/16 04:50:44;;;;;;;20.80;13.43;;;;;;;-1.03;100.00;100578.88;1636033;87;21081;-73
2022/10/16 04:53:11;;;;;;;23.50;14.83;;;;;;;-1.00;100.00;100581.09;1635910;87;21261;-73
2022/10/16 04:55:38;;;;;;;22.52;13.22;;;;;;;-0.95;100.00;100579.89;1635968;87;21070;-73
2022/10/16 04:58:04;;;;;;;19.90;12.58;;;;;;;-0.89;100.00;100582.18;1635874;87;21057;-73
2022/10/16 05:00:31;;;;;;;21.97;13.13;;;;;;;-0.84;100.00;100586.98;1636036;86;21026;-73
2022/10/16 05:02:59;;;;;;;28.98;15.45;;;;;;;-0.78;100.00;100590.06;1636072;87;21030;-73
2022/10/16 05:05:27;;;;;;;26.93;13.95;;;;;;;-0.73;100.00;100597.42;1636021;87;21171;-73
2022/10/16 05:07:54;;;;;;;26.50;12.00;;;;;;;-0.67;100.00;100597.56;1636142;87;21065;-73
2022/10/16 05:10:21;;;;;;;20.32;12.50;;;;;;;-0.60;100.00;100599.84;1636005;87;20973;-73
2022/10/16 05:12:48;;;;;;;18.27;13.28;;;;;;;-0.54;100.00;100599.95;1635877;87;21573;-73
2022/10/16 05:15:15;;;;;;;21.45;12.73;;;;;;;-0.43;100.00;100608.73;1635929;87;21073;-73
2022/10/16 05:17:42;;;;;;;28.42;13.70;;;;;;;-0.34;100.00;100611.45;1635963;87;21122;-73
2022/10/16 05:20:09;;;;;;;28.83;13.58;;;;;;;-0.26;100.00;100609.93;1635938;87;21427;-73
2022/10/16 05:22:36;;;;;;;44.40;24.20;;;;;;;-0.18;100.00;100616.05;1636056;87;21018;-74
2022/10/16 05:25:05;;;;;;;41.00;18.07;;;;;;;-0.10;100.00;100623.87;1636103;87;20985;-73
2022/10/16 05:27:31;;;;;;;29.82;15.65;;;;;;;-0.02;100.00;100621.94;1636088;87;21442;-73
2022/10/16 05:29:58;;;;;;;20.52;13.22;;;;;;;0.07;100.00;100621.64;1636023;87;21165;-73
2022/10/16 05:32:25;;;;;;;23.65;12.50;;;;;;;0.17;100.00;100628.68;1636021;87;21040;-73
2022/10/16 05:34:51;;;;;;;21.20;12.63;;;;;;;0.27;100.00;100626.72;1636373;87;20962;-73
2022/10/16 05:37:18;;;;;;;20.88;12.53;;;;;;;0.36;100.00;100629.46;1636110;87;20981;-73
2022/10/16 05:39:45;;;;;;;16.85;12.40;;;;;;;0.46;100.00;100633.03;1636028;87;21042;-73
2022/10/16 05:42:11;;;;;;;21.70;13.80;;;;;;;0.54;100.00;100636.60;1636048;87;21777;-73
2022/10/16 05:44:39;;;;;;;27.00;13.60;;;;;;;0.61;100.00;100640.97;1636407;87;20906;-73
2022/10/16 05:47:06;;;;;;;21.52;12.23;;;;;;;0.69;100.00;100641.56;1635996;87;21013;-73
2022/10/16 05:49:32;;;;;;;17.32;12.53;;;;;;;0.80;100.00;100651.97;1636299;87;21435;-73
2022/10/16 05:51:59;;;;;;;17.15;11.80;;;;;;;0.91;100.00;100649.60;1636244;87;21470;-73
2022/10/16 05:54:26;;;;;;;21.17;13.70;;;;;;;1.00;100.00;100653.58;1636110;87;21269;-73
2022/10/16 05:56:52;;;;;;;25.25;13.78;;;;;;;1.10;100.00;100654.17;1635956;87;20986;-73
2022/10/16 05:59:19;;;;;;;23.65;13.55;;;;;;;1.21;100.00;100653.91;1636096;87;20969;-73
2022/10/16 06:01:45;;;;;;;19.75;13.55;;;;;;;1.32;100.00;100654.95;1649037;86;21058;-73
2022/10/16 06:04:12;;;;;;;32.23;14.75;;;;;;;1.42;100.00;100658.48;1656153;86;20967;-73
2022/10/16 06:06:39;;;;;;;18.90;12.47;;;;;;;1.51;100.00;100654.79;1656096;86;21171;-73
2022/10/16 06:09:07;;;;;;;19.90;14.20;;;;;;;1.60;100.00;100657.46;1655981;86;21109;-73
2022/10/16 06:11:35;;;;;;;26.97;14.58;;;;;;;1.70;100.00;100654.62;1656108;86;21077;-73
2022/10/16 06:14:06;;;;;;;20.75;13.22;;;;;;;1.82;100.00;100665.02;1636290;86;21007;-73
2022/10/16 06:16:34;;;;;;;26.70;14.20;;;;;;;1.95;100.00;100664.78;1656138;86;20975;-73
2022/10/16 06:19:05;;;;;;;27.67;14.93;;;;;;;2.08;100.00;100671.34;1656081;86;21070;-73
2022/10/16 06:21:31;;;;;;;21.93;14.03;;;;;;;2.22;100.00;100670.63;1656134;86;21059;-73
2022/10/16 06:23:58;;;;;;;14.40;11.30;;;;;;;2.34;100.00;100677.21;1656105;86;21010;-73
2022/10/16 06:26:27;;;;;;;25.27;12.90;;;;;;;2.48;100.00;100670.50;1656094;86;21015;-73
2022/10/16 06:28:55;;;;;;;18.70;14.28;;;;;;;2.61;100.00;100667.63;1656029;86;21542;-73
2022/10/16 06:31:22;;;;;;;19.15;13.32;;;;;;;2.75;100.00;100673.78;1656004;86;21084;-73
2022/10/16 06:33:52;;;;;;;25.12;14.23;;;;;;;2.89;100.00;100672.19;1655884;86;21028;-73
2022/10/16 06:36:19;;;;;;;24.40;14.30;;;;;;;3.02;100.00;100678.28;1656098;86;20998;-73
2022/10/16 06:38:45;;;;;;;29.77;16.42;;;;;;;3.13;100.00;100682.24;1655973;86;21074;-73
2022/10/16 06:41:15;;;;;;;23.42;14.00;;;;;;;3.24;100.00;100685.31;1656096;86;20975;-73
2022/10/16 06:43:41;;;;;;;22.77;14.20;;;;;;;3.37;100.00;100682.43;1656100;86;21147;-73
2022/10/16 06:46:10;;;;;;;25.55;15.85;;;;;;;3.50;100.00;100679.08;1656027;86;21070;-73
2022/10/16 06:48:37;;;;;;;26.85;16.40;;;;;;;3.61;100.00;100679.99;1655997;86;21026;-73
2022/10/16 06:51:12;;;;;;;25.97;16.93;;;;;;;3.76;100.00;100680.53;1656153;86;21060;-73
2022/10/16 06:53:43;;;;;;;24.77;16.77;;;;;;;3.90;100.00;100680.16;1656018;86;20991;-73
2022/10/16 06:56:20;;;;;;;24.45;16.70;;;;;;;4.04;99.64;100673.78;1656118;86;21765;-73
2022/10/16 06:58:49;;;;;;;17.27;12.88;;;;;;;4.17;99.56;100678.57;1656023;86;21534;-72
2022/10/16 07:01:18;;;;;;;18.32;11.50;;;;;;;4.29;99.28;100679.46;1657512;86;21019;-73
2022/10/16 07:03:45;;;;;;;15.53;10.95;;;;;;;4.42;99.30;100678.63;1660998;86;21109;-72
2022/10/16 07:06:16;;;;;;;15.95;11.60;;;;;;;4.56;99.20;100679.11;1661128;86;20991;-72
2022/10/16 07:08:46;;;;;;;16.70;11.08;;;;;;;4.70;99.22;100677.41;1661051;86;21240;-71
2022/10/16 07:11:18;;;;;;;17.27;11.45;;;;;;;4.87;99.15;100680.87;1660928;84;20958;-72
2022/10/16 07:13:45;;;;;;;16.27;10.90;;;;;;;5.04;98.72;100680.44;1661364;86;20991;-73
2022/10/16 07:16:21;;;;;;;15.95;11.30;;;;;;;5.18;98.35;100672.30;1661077;86;21483;-73
2022/10/16 07:18:51;;;;;;;17.48;11.57;;;;;;;5.34;97.90;100680.87;1628634;86;21462;-72
2022/10/16 07:21:25;;;;;;;17.30;10.90;;;;;;;5.50;97.46;100677.41;1661086;86;21125;-73
2022/10/16 07:23:58;;;;;;;27.87;11.12;;;;;;;5.67;97.36;100680.38;1661032;86;21015;-73
2022/10/16 07:26:25;;;;;;;14.07;9.40;;;;;;;5.82;96.74;100676.03;1660980;86;21089;-73
2022/10/16 07:28:52;;;;;;;13.62;10.40;;;;;;;6.00;96.09;100681.59;1660985;86;20982;-73
2022/10/16 07:31:21;;;;;;;16.73;9.95;;;;;;;6.18;95.81;100683.28;1661094;86;21496;-73
2022/10/16 07:33:49;;;;;;;15.25;11.10;;;;;;;6.35;95.07;100681.47;1661072;86;21965;-74
2022/10/16 07:36:17;;;;;;;12.70;6.95;;;;;;;6.52;94.76;100683.95;1661049;86;21565;-73
2022/10/16 07:38:45;;;;;;;14.30;5.78;;;;;;;6.67;93.09;100674.81;1661001;86;21172;-73
2022/10/16 07:41:15;;;;;;;9.58;5.42;;;;;;;6.84;91.88;100677.28;1632652;88;21023;-72
2022/10/16 07:43:50;;;;;;;6.03;4.60;;;;;;;7.00;90.76;100672.84;1642613;87;20984;-73
2022/10/16 07:46:17;;;;;;;8.53;5.85;;;;;;;7.16;89.20;100675.76;1661042;86;21097;-73
2022/10/16 07:48:46;;;;;;;12.63;5.08;;;;;;;7.32;87.70;100672.16;1632606;88;21118;-73
2022/10/16 07:51:17;;;;;;;11.40;6.05;;;;;;;7.48;86.71;100677.61;1642797;87;20999;-72
2022/10/16 07:53:44;;;;;;;9.38;4.97;;;;;;;7.64;85.37;100664.50;1642847;87;21109;-72
2022/10/16 07:56:11;;;;;;;7.47;4.72;;;;;;;7.76;83.96;100663.09;1642965;87;21436;-73
2022/10/16 07:58:39;;;;;;;7.70;4.92;;;;;;;7.87;83.05;100667.27;1661132;86;20955;-73
2022/10/16 08:01:08;;;;;;;10.38;4.85;;;;;;;8.00;82.13;100676.17;1632291;87;21458;-73
2022/10/16 08:03:35;;;;;;;11.63;7.25;;;;;;;8.11;81.05;100674.34;1633095;88;21080;-72
2022/10/16 08:06:03;;;;;;;7.92;4.80;;;;;;;8.23;80.08;100681.94;1633114;88;20962;-72
2022/10/16 08:08:30;;;;;;;9.35;5.25;;;;;;;8.34;79.56;100677.53;1633300;88;21498;-72
2022/10/16 08:10:56;;;;;;;14.78;4.70;;;;;;;8.45;78.77;100683.85;1633514;88;21159;-72
2022/10/16 08:13:26;;;;;;;7.58;3.72;;;;;;;8.55;77.65;100681.57;1633122;88;21037;-72
2022/10/16 08:15:55;;;;;;;8.15;3.05;;;;;;;8.68;76.31;100679.65;1633147;88;21085;-72
2022/10/16 08:18:22;;;;;;;8.43;3.72;;;;;;;8.79;74.91;100672.59;1633390;88;21422;-72
2022/10/16 08:20:57;;;;;;;4.90;3.50;;;;;;;8.90;72.95;100676.72;1633105;88;21002;-72
2022/10/16 08:23:25;;;;;;;12.43;3.15;;;;;;;9.00;72.55;100680.01;1633181;88;21184;-72
2022/10/16 08:25:55;;;;;;;4.42;2.90;;;;;;;9.10;71.86;100689.38;1633086;88;20999;-72
2022/10/16 08:28:22;;;;;;;13.28;3.85;;;;;;;9.21;71.20;100689.19;1632861;86;21017;-73
2022/10/16 08:30:50;;;;;;;6.45;2.90;;;;;;;9.28;69.86;100689.07;1633130;88;21199;-73
2022/10/16 08:33:16;;;;;;;7.15;2.72;;;;;;;9.37;67.35;100693.27;1633213;88;21502;-72
2022/10/16 08:35:45;;;;;;;5.62;2.52;;;;;;;9.47;65.66;100686.16;1633417;88;21482;-73
2022/10/16 08:38:12;;;;;;;5.50;2.50;;;;;;;9.55;63.91;100690.34;1622461;86;20985;-73
2022/10/16 08:40:39;;;;;;;3.50;2.47;;;;;;;9.64;63.34;100690.16;1634807;87;20985;-73
2022/10/16 08:43:30;;;;;;;3.85;2.30;;;;;;;9.72;63.07;100690.48;1611644;87;21022;-73
2022/10/16 08:46:40;;;;;;;5.28;2.25;;;;;;;9.79;62.04;100690.31;1633237;88;21026;-73
2022/10/16 08:49:11;;;;;;;4.62;2.60;;;;;;;9.87;61.65;100687.58;1633435;88;21170;-73
2022/10/16 08:51:38;;;;;;;6.15;2.83;;;;;;;9.93;61.31;100691.37;1633119;87;21090;-73
2022/10/16 08:54:17;;;;;;;9.35;3.40;;;;;;;9.98;61.22;100694.75;1633307;86;21093;-73
2022/10/16 08:56:45;;;;;;;6.83;2.58;;;;;;;10.02;60.31;100690.73;1633220;87;21501;-73
2022/10/16 08:59:11;;;;;;;11.95;4.28;;;;;;;10.06;59.85;100682.44;1633347;88;20962;-73
2022/10/16 09:01:45;;;;;;;6.62;3.45;;;;;;;10.09;59.86;100681.52;1631500;87;21199;-73
2022/10/16 09:04:30;;;;;;;;;;;;;;;10.15;60.19;100685.30;1655361;86;20971;-73
2022/10/16 09:07:23;;;;;;;5.35;2.62;;;;;;;10.22;59.83;100682.56;1592573;88;20470;-72
2022/10/16 09:10:20;;;;;;;2.30;2.10;;;;;;;10.28;59.65;100684.19;1625494;88;20995;-72
2022/10/16 09:12:52;;;;;;;8.18;2.92;;;;;;;10.30;58.49;100672.87;1622794;88;21517;-72
2022/10/16 09:15:46;;;;;;;6.75;2.83;;;;;;;10.31;58.59;100674.58;1629081;88;21116;-72
2022/10/16 09:18:27;;;;;;;7.67;2.45;;;;;;;10.36;57.91;100673.19;1631291;87;21027;-72
2022/10/16 09:21:11;;;;;;;3.45;3.00;;;;;;;10.43;57.48;100671.30;1627456;88;21054;-72
2022/10/16 09:23:39;;;;;;;8.35;4.15;;;;;;;10.44;57.02;100653.05;1625059;88;21003;-72
2022/10/16 09:26:12;;;;;;;6.78;2.92;;;;;;;10.48;57.56;100661.66;1629855;88;21046;-72
2022/10/16 09:28:40;;;;;;;5.10;2.85;;;;;;;10.51;56.65;100658.55;1651112;87;21889;-72
2022/10/16 09:31:19;;;;;;;3.72;2.55;;;;;;;10.56;56.54;100655.41;1643580;87;46873;-72
2022/10/16 09:33:59;;;;;;;4.72;2.58;;;;;;;10.60;56.25;100662.22;1645992;87;20991;-71
2022/10/16 09:36:30;;;;;;;7.22;2.72;;;;;;;10.63;56.03;100669.11;1602799;89;21062;-72
2022/10/16 09:39:09;;;;;;;4.45;2.40;;;;;;;10.63;55.86;100679.06;1608069;89;21102;-73
2022/10/16 09:41:42;;;;;;;4.55;2.42;;;;;;;10.66;55.77;100679.45;1609056;89;21428;-72
2022/10/16 09:44:31;;;;;;;3.05;2.15;;;;;;;10.70;55.76;100669.39;1597643;89;21040;-73
2022/10/16 09:47:06;;;;;;;5.78;2.45;;;;;;;10.77;55.60;100674.02;1566497;90;21072;-72
2022/10/16 09:49:33;;;;;;;12.47;2.30;;;;;;;10.82;54.58;100672.14;1566523;90;21018;-73
2022/10/16 09:52:14;;;;;;;3.22;2.08;;;;;;;10.85;54.31;100672.08;1597242;89;21040;-73
2022/10/16 09:54:56;;;;;;;8.90;2.37;;;;;;;10.88;53.84;100662.90;1599694;89;21484;-73
2022/10/16 09:57:25;;;;;;;7.47;2.87;;;;;;;10.90;53.64;100669.78;1597903;89;21513;-71
2022/10/16 09:59:53;;;;;;;7.60;3.87;;;;;;;10.91;53.46;100669.34;1598032;89;21024;-71
2022/10/16 10:02:35;;;;;;;5.60;3.17;;;;;;;10.92;53.34;100667.15;1597634;89;21019;-71
2022/10/16 10:05:03;;;;;;;3.62;2.20;;;;;;;10.95;53.15;100662.73;1597844;89;21531;-72
2022/10/16 10:07:39;;;;;;;3.98;2.55;;;;;;;10.99;53.28;100654.41;1624896;87;21452;-72
2022/10/16 10:10:08;;;;;;;4.65;2.37;;;;;;;11.00;52.93;100646.53;1642145;86;21480;-72
2022/10/16 10:12:36;;;;;;;3.95;2.50;;;;;;;11.05;53.33;100638.61;1623843;87;21075;-73
2022/10/16 10:15:11;;;;;;;8.50;3.58;;;;;;;11.12;52.54;100628.47;1652132;86;21424;-72
2022/10/16 10:17:49;;;;;;;5.90;2.90;;;;;;;11.17;52.83;100634.42;1627400;87;21497;-72
2022/10/16 10:20:24;;;;;;;10.45;3.20;;;;;;;11.20;52.75;100629.11;1625486;88;21336;-72
2022/10/16 10:22:52;;;;;;;3.98;2.90;;;;;;;11.23;53.06;100628.17;1625498;88;20950;-72
2022/10/16 10:25:40;;;;;;;5.08;2.60;;;;;;;11.23;53.05;100618.61;1624118;88;21562;-72
2022/10/16 10:28:51;;;;;;;5.03;2.50;;;;;;;11.25;53.12;100622.04;1629790;88;21514;-73
2022/10/16 10:31:24;;;;;;;3.98;2.83;;;;;;;11.26;52.36;100626.35;1651118;87;21094;-73
2022/10/16 10:34:08;;;;;;;5.00;2.52;;;;;;;11.26;52.49;100626.80;1653434;86;21443;-72
2022/10/16 10:36:40;;;;;;;6.33;2.60;;;;;;;11.29;52.63;100637.14;1634115;87;21031;-72
2022/10/16 10:39:27;;;;;;;7.15;2.85;;;;;;;11.34;52.58;100637.89;1634954;87;21078;-72
2022/10/16 10:42:10;;;;;;;7.28;3.80;;;;;;;11.38;52.35;100633.02;1634919;87;21133;-72
2022/10/16 10:45:06;;;;;;;14.07;3.95;;;;;;;11.42;52.20;100643.73;1632449;87;21096;-72
2022/10/16 10:48:03;;;;;;;10.10;3.30;;;;;;;11.44;51.66;100637.18;1634857;87;21288;-72
2022/10/16 10:50:56;;;;;;;6.33;2.85;;;;;;;11.46;51.55;100640.16;1634502;87;21486;-72
2022/10/16 10:53:37;;;;;;;4.17;2.67;;;;;;;11.47;51.13;100653.59;1635123;87;21486;-72
2022/10/16 10:56:32;;;;;;;3.98;2.60;;;;;;;11.47;50.42;100653.59;1627346;87;21052;-72
2022/10/16 10:59:07;;;;;;;4.92;3.02;;;;;;;11.44;50.05;100653.66;1633923;87;21533;-73
2022/10/16 11:01:57;;;;;;;8.95;3.33;;;;;;;11.43;49.96;100649.80;1634861;87;22108;-71
2022/10/16 11:04:48;;;;;;;5.50;2.65;;;;;;;11.44;49.82;100653.66;1634536;87;20975;-71
2022/10/16 11:07:23;;;;;;;5.03;2.77;;;;;;;11.48;49.63;100653.14;1632056;87;21070;-73
2022/10/16 11:09:58;;;;;;;5.30;2.47;;;;;;;11.48;49.36;100651.39;1634783;87;21470;-73
2022/10/16 11:12:42;;;;;;;5.47;2.37;;;;;;;11.48;49.52;100656.61;1634436;87;21526;-73
2022/10/16 11:15:23;;;;;;;5.92;3.02;;;;;;;11.49;49.42;100645.30;1634557;87;21178;-74
2022/10/16 11:18:16;;;;;;;4.62;2.58;;;;;;;11.52;49.52;100644.36;1634796;87;20990;-72
2022/10/16 11:20:47;;;;;;;;;;;;;;;11.53;49.86;100636.95;1637185;87;21498;-72
2022/10/16 11:23:25;;;;;;;4.50;2.75;;;;;;;11.53;49.54;100624.78;1634993;87;20140;-72
2022/10/16 11:25:52;;;;;;;4.33;2.42;;;;;;;11.53;49.61;100616.11;1634815;87;21446;-72
2022/10/16 11:28:26;;;;;;;7.10;3.02;;;;;;;11.52;49.97;100613.95;1635039;87;21174;-72
2022/10/16 11:30:58;;;;;;;12.70;3.47;;;;;;;11.55;50.61;100616.92;1634741;87;21007;-72